sensor_id;sensor_type;location;lat;lon;timestamp;P1;durP1;ratioP1;P2;durP2;ratioP2
16346;SDS011;8283;48.504;13.734;2023-11-21T00:01:58;1.60;;;1.10;;
16346;SDS011;8283;48.504;13.734;2023-11-21T00:04:18;2.50;;;1.38;;
16346;SDS011;8283;48.504;13.734;2023-11-21T00:06:37;3.47;;;1.30;;
16346;SDS011;8283;48.504;13.734;2023-11-21T00:08:57;2.47;;;1.52;;
16346;SDS011;8283;48.504;13.734;2023-11-21T00:11:16;3.22;;;1.48;;
16346;SDS011;8283;48.504;13.734;2023-11-21T00:13:35;1.55;;;1.10;;
16346;SDS011;8283;48.504;13.734;2023-11-21T00:15:55;1.60;;;1.30;;
16346;SDS011;8283;48.504;13.734;2023-11-21T00:18:14;2.05;;;1.30;;
16346;SDS011;8283;48.504;13.734;2023-11-21T00:20:33;1.75;;;1.48;;
16346;SDS011;8283;48.504;13.734;2023-11-21T00:22:53;1.65;;;1.20;;
16346;SDS011;8283;48.504;13.734;2023-11-21T00:25:12;1.85;;;1.20;;
16346;SDS011;8283;48.504;13.734;2023-11-21T00:29:53;2.13;;;0.93;;
16346;SDS011;8283;48.504;13.734;2023-11-21T00:32:13;1.73;;;1.40;;
16346;SDS011;8283;48.504;13.734;2023-11-21T00:34:32;2.45;;;1.45;;
16346;SDS011;8283;48.504;13.734;2023-11-21T00:36:51;3.83;;;1.33;;
16346;SDS011;8283;48.504;13.734;2023-11-21T00:39:11;2.92;;;1.42;;
16346;SDS011;8283;48.504;13.734;2023-11-21T00:41:30;3.33;;;1.83;;
16346;SDS011;8283;48.504;13.734;2023-11-21T00:43:50;1.90;;;1.35;;
16346;SDS011;8283;48.504;13.734;2023-11-21T00:46:09;2.45;;;1.17;;
16346;SDS011;8283;48.504;13.734;2023-11-21T00:48:29;3.03;;;1.77;;
16346;SDS011;8283;48.504;13.734;2023-11-21T00:50:48;3.17;;;1.75;;
16346;SDS011;8283;48.504;13.734;2023-11-21T00:53:09;1.83;;;1.10;;
16346;SDS011;8283;48.504;13.734;2023-11-21T00:55:28;4.05;;;1.70;;
16346;SDS011;8283;48.504;13.734;2023-11-21T00:57:48;3.63;;;1.20;;
16346;SDS011;8283;48.504;13.734;2023-11-21T01:00:08;2.92;;;1.15;;
16346;SDS011;8283;48.504;13.734;2023-11-21T01:02:36;2.03;;;1.50;;
16346;SDS011;8283;48.504;13.734;2023-11-21T01:04:55;2.35;;;1.33;;
16346;SDS011;8283;48.504;13.734;2023-11-21T01:07:14;1.77;;;1.38;;
16346;SDS011;8283;48.504;13.734;2023-11-21T01:09:33;1.92;;;1.15;;
16346;SDS011;8283;48.504;13.734;2023-11-21T01:11:53;1.50;;;1.17;;
16346;SDS011;8283;48.504;13.734;2023-11-21T01:14:12;1.83;;;0.93;;
16346;SDS011;8283;48.504;13.734;2023-11-21T01:16:32;1.63;;;1.20;;
16346;SDS011;8283;48.504;13.734;2023-11-21T01:18:51;1.30;;;0.90;;
16346;SDS011;8283;48.504;13.734;2023-11-21T01:21:11;2.92;;;1.02;;
16346;SDS011;8283;48.504;13.734;2023-11-21T01:23:31;1.25;;;0.80;;
16346;SDS011;8283;48.504;13.734;2023-11-21T01:25:50;1.30;;;0.80;;
16346;SDS011;8283;48.504;13.734;2023-11-21T01:28:11;1.30;;;1.00;;
16346;SDS011;8283;48.504;13.734;2023-11-21T01:30:31;1.15;;;0.80;;
16346;SDS011;8283;48.504;13.734;2023-11-21T01:32:51;3.07;;;1.00;;
16346;SDS011;8283;48.504;13.734;2023-11-21T01:35:10;1.40;;;0.85;;
16346;SDS011;8283;48.504;13.734;2023-11-21T01:37:30;1.48;;;1.10;;
16346;SDS011;8283;48.504;13.734;2023-11-21T01:39:50;2.38;;;1.02;;
16346;SDS011;8283;48.504;13.734;2023-11-21T01:42:09;1.40;;;0.90;;
16346;SDS011;8283;48.504;13.734;2023-11-21T01:44:28;1.95;;;0.80;;
16346;SDS011;8283;48.504;13.734;2023-11-21T01:46:48;1.83;;;0.93;;
16346;SDS011;8283;48.504;13.734;2023-11-21T01:49:08;1.05;;;0.80;;
16346;SDS011;8283;48.504;13.734;2023-11-21T01:51:32;1.38;;;0.80;;
16346;SDS011;8283;48.504;13.734;2023-11-21T01:53:51;1.85;;;1.00;;
16346;SDS011;8283;48.504;13.734;2023-11-21T01:56:11;0.98;;;0.88;;
16346;SDS011;8283;48.504;13.734;2023-11-21T01:58:30;2.05;;;0.90;;
16346;SDS011;8283;48.504;13.734;2023-11-21T02:00:51;2.45;;;1.13;;
16346;SDS011;8283;48.504;13.734;2023-11-21T02:03:14;2.45;;;0.80;;
16346;SDS011;8283;48.504;13.734;2023-11-21T02:05:33;1.35;;;0.88;;
16346;SDS011;8283;48.504;13.734;2023-11-21T02:07:53;2.35;;;1.15;;
16346;SDS011;8283;48.504;13.734;2023-11-21T02:10:12;1.58;;;1.00;;
16346;SDS011;8283;48.504;13.734;2023-11-21T02:12:33;2.08;;;1.02;;
16346;SDS011;8283;48.504;13.734;2023-11-21T02:14:58;5.60;;;1.00;;
16346;SDS011;8283;48.504;13.734;2023-11-21T02:17:17;1.98;;;1.27;;
16346;SDS011;8283;48.504;13.734;2023-11-21T02:19:36;1.95;;;1.13;;
16346;SDS011;8283;48.504;13.734;2023-11-21T02:21:57;1.35;;;0.98;;
16346;SDS011;8283;48.504;13.734;2023-11-21T02:24:20;1.42;;;1.00;;
16346;SDS011;8283;48.504;13.734;2023-11-21T02:26:40;2.20;;;1.05;;
16346;SDS011;8283;48.504;13.734;2023-11-21T02:28:59;1.83;;;1.10;;
16346;SDS011;8283;48.504;13.734;2023-11-21T02:31:19;1.98;;;1.10;;
16346;SDS011;8283;48.504;13.734;2023-11-21T02:33:38;2.00;;;1.20;;
16346;SDS011;8283;48.504;13.734;2023-11-21T02:35:58;1.40;;;1.00;;
16346;SDS011;8283;48.504;13.734;2023-11-21T02:38:18;1.48;;;1.33;;
16346;SDS011;8283;48.504;13.734;2023-11-21T02:40:39;1.63;;;1.05;;
16346;SDS011;8283;48.504;13.734;2023-11-21T02:42:58;2.03;;;1.05;;
16346;SDS011;8283;48.504;13.734;2023-11-21T02:45:18;1.25;;;1.00;;
16346;SDS011;8283;48.504;13.734;2023-11-21T02:47:40;2.60;;;1.00;;
16346;SDS011;8283;48.504;13.734;2023-11-21T02:50:00;1.63;;;1.00;;
16346;SDS011;8283;48.504;13.734;2023-11-21T02:52:20;1.17;;;0.88;;
16346;SDS011;8283;48.504;13.734;2023-11-21T02:54:39;1.13;;;0.90;;
16346;SDS011;8283;48.504;13.734;2023-11-21T02:56:59;1.27;;;0.73;;
16346;SDS011;8283;48.504;13.734;2023-11-21T02:59:18;1.90;;;0.90;;
16346;SDS011;8283;48.504;13.734;2023-11-21T03:01:38;2.15;;;1.10;;
16346;SDS011;8283;48.504;13.734;2023-11-21T03:03:57;3.20;;;0.82;;
16346;SDS011;8283;48.504;13.734;2023-11-21T03:06:17;1.23;;;0.90;;
16346;SDS011;8283;48.504;13.734;2023-11-21T03:08:37;1.98;;;1.23;;
16346;SDS011;8283;48.504;13.734;2023-11-21T03:10:56;2.60;;;1.48;;
16346;SDS011;8283;48.504;13.734;2023-11-21T03:13:16;2.67;;;1.02;;
16346;SDS011;8283;48.504;13.734;2023-11-21T03:15:35;1.55;;;0.90;;
16346;SDS011;8283;48.504;13.734;2023-11-21T03:17:54;5.47;;;1.20;;
16346;SDS011;8283;48.504;13.734;2023-11-21T03:20:14;1.98;;;0.90;;
16346;SDS011;8283;48.504;13.734;2023-11-21T03:22:34;1.20;;;1.05;;
16346;SDS011;8283;48.504;13.734;2023-11-21T03:24:54;1.45;;;0.98;;
16346;SDS011;8283;48.504;13.734;2023-11-21T03:27:14;1.52;;;1.17;;
16346;SDS011;8283;48.504;13.734;2023-11-21T03:29:33;1.13;;;1.02;;
16346;SDS011;8283;48.504;13.734;2023-11-21T03:31:52;2.75;;;1.20;;
16346;SDS011;8283;48.504;13.734;2023-11-21T03:34:16;1.98;;;1.00;;
16346;SDS011;8283;48.504;13.734;2023-11-21T03:36:41;0.80;;;0.80;;
16346;SDS011;8283;48.504;13.734;2023-11-21T03:39:01;1.20;;;0.98;;
16346;SDS011;8283;48.504;13.734;2023-11-21T03:41:20;1.88;;;1.40;;
16346;SDS011;8283;48.504;13.734;2023-11-21T03:43:39;1.30;;;0.93;;
16346;SDS011;8283;48.504;13.734;2023-11-21T03:45:59;1.65;;;1.00;;
16346;SDS011;8283;48.504;13.734;2023-11-21T03:48:19;1.60;;;0.93;;
16346;SDS011;8283;48.504;13.734;2023-11-21T03:50:38;1.73;;;1.10;;
16346;SDS011;8283;48.504;13.734;2023-11-21T03:52:59;3.92;;;1.23;;
16346;SDS011;8283;48.504;13.734;2023-11-21T03:55:19;1.75;;;1.00;;
16346;SDS011;8283;48.504;13.734;2023-11-21T03:57:38;0.98;;;0.85;;
16346;SDS011;8283;48.504;13.734;2023-11-21T03:59:57;1.50;;;1.20;;
16346;SDS011;8283;48.504;13.734;2023-11-21T04:02:17;1.90;;;1.20;;
16346;SDS011;8283;48.504;13.734;2023-11-21T04:04:36;1.42;;;1.10;;
16346;SDS011;8283;48.504;13.734;2023-11-21T04:06:55;2.08;;;1.02;;
16346;SDS011;8283;48.504;13.734;2023-11-21T04:09:15;1.48;;;0.93;;
16346;SDS011;8283;48.504;13.734;2023-11-21T04:11:34;2.17;;;0.93;;
16346;SDS011;8283;48.504;13.734;2023-11-21T04:13:53;1.20;;;1.00;;
16346;SDS011;8283;48.504;13.734;2023-11-21T04:16:13;1.33;;;0.98;;
16346;SDS011;8283;48.504;13.734;2023-11-21T04:18:33;1.52;;;0.80;;
16346;SDS011;8283;48.504;13.734;2023-11-21T04:20:56;1.17;;;0.70;;
16346;SDS011;8283;48.504;13.734;2023-11-21T04:23:15;1.30;;;0.80;;
16346;SDS011;8283;48.504;13.734;2023-11-21T04:25:35;0.90;;;0.80;;
16346;SDS011;8283;48.504;13.734;2023-11-21T04:27:54;2.00;;;0.95;;
16346;SDS011;8283;48.504;13.734;2023-11-21T04:30:13;1.55;;;1.02;;
16346;SDS011;8283;48.504;13.734;2023-11-21T04:32:33;1.55;;;1.00;;
16346;SDS011;8283;48.504;13.734;2023-11-21T04:34:52;1.88;;;1.13;;
16346;SDS011;8283;48.504;13.734;2023-11-21T04:37:12;1.85;;;1.08;;
16346;SDS011;8283;48.504;13.734;2023-11-21T04:39:31;1.30;;;0.98;;
16346;SDS011;8283;48.504;13.734;2023-11-21T04:41:51;1.45;;;1.10;;
16346;SDS011;8283;48.504;13.734;2023-11-21T04:44:10;1.83;;;1.00;;
16346;SDS011;8283;48.504;13.734;2023-11-21T04:46:30;1.85;;;1.20;;
16346;SDS011;8283;48.504;13.734;2023-11-21T04:48:49;1.85;;;1.25;;
16346;SDS011;8283;48.504;13.734;2023-11-21T04:51:08;1.95;;;1.08;;
16346;SDS011;8283;48.504;13.734;2023-11-21T04:53:28;1.27;;;1.13;;
16346;SDS011;8283;48.504;13.734;2023-11-21T04:55:47;1.45;;;0.88;;
16346;SDS011;8283;48.504;13.734;2023-11-21T04:58:07;1.75;;;1.23;;
16346;SDS011;8283;48.504;13.734;2023-11-21T05:00:27;2.58;;;1.30;;
16346;SDS011;8283;48.504;13.734;2023-11-21T05:02:46;2.17;;;1.25;;
16346;SDS011;8283;48.504;13.734;2023-11-21T05:05:06;1.38;;;1.17;;
16346;SDS011;8283;48.504;13.734;2023-11-21T05:07:26;2.17;;;1.30;;
16346;SDS011;8283;48.504;13.734;2023-11-21T05:09:48;4.75;;;1.75;;
16346;SDS011;8283;48.504;13.734;2023-11-21T05:12:08;1.52;;;1.33;;
16346;SDS011;8283;48.504;13.734;2023-11-21T05:14:28;1.73;;;1.33;;
16346;SDS011;8283;48.504;13.734;2023-11-21T05:16:47;1.08;;;0.90;;
16346;SDS011;8283;48.504;13.734;2023-11-21T05:19:06;1.10;;;1.00;;
16346;SDS011;8283;48.504;13.734;2023-11-21T05:21:26;1.23;;;0.90;;
16346;SDS011;8283;48.504;13.734;2023-11-21T05:23:46;1.65;;;1.00;;
16346;SDS011;8283;48.504;13.734;2023-11-21T05:26:05;1.38;;;1.00;;
16346;SDS011;8283;48.504;13.734;2023-11-21T05:28:25;1.60;;;0.90;;
16346;SDS011;8283;48.504;13.734;2023-11-21T05:30:44;1.83;;;0.93;;
16346;SDS011;8283;48.504;13.734;2023-11-21T05:33:04;2.17;;;1.08;;
16346;SDS011;8283;48.504;13.734;2023-11-21T05:35:27;1.67;;;0.93;;
16346;SDS011;8283;48.504;13.734;2023-11-21T05:37:46;2.67;;;1.30;;
16346;SDS011;8283;48.504;13.734;2023-11-21T05:40:06;1.33;;;1.10;;
16346;SDS011;8283;48.504;13.734;2023-11-21T05:42:26;1.13;;;1.02;;
16346;SDS011;8283;48.504;13.734;2023-11-21T05:44:46;1.23;;;1.13;;
16346;SDS011;8283;48.504;13.734;2023-11-21T05:47:07;2.13;;;1.33;;
16346;SDS011;8283;48.504;13.734;2023-11-21T05:49:26;1.83;;;1.10;;
16346;SDS011;8283;48.504;13.734;2023-11-21T05:51:45;1.25;;;1.10;;
16346;SDS011;8283;48.504;13.734;2023-11-21T05:54:04;2.70;;;1.33;;
16346;SDS011;8283;48.504;13.734;2023-11-21T05:56:24;2.20;;;1.17;;
16346;SDS011;8283;48.504;13.734;2023-11-21T05:58:43;1.30;;;0.95;;
16346;SDS011;8283;48.504;13.734;2023-11-21T06:01:05;1.67;;;0.98;;
16346;SDS011;8283;48.504;13.734;2023-11-21T06:03:26;1.92;;;1.10;;
16346;SDS011;8283;48.504;13.734;2023-11-21T06:05:46;3.83;;;1.40;;
16346;SDS011;8283;48.504;13.734;2023-11-21T06:08:05;4.85;;;1.33;;
16346;SDS011;8283;48.504;13.734;2023-11-21T06:10:26;2.80;;;1.15;;
16346;SDS011;8283;48.504;13.734;2023-11-21T06:12:45;0.88;;;0.82;;
16346;SDS011;8283;48.504;13.734;2023-11-21T06:15:05;1.27;;;1.13;;
16346;SDS011;8283;48.504;13.734;2023-11-21T06:17:26;2.42;;;1.50;;
16346;SDS011;8283;48.504;13.734;2023-11-21T06:19:47;1.73;;;1.17;;
16346;SDS011;8283;48.504;13.734;2023-11-21T06:22:06;3.13;;;2.10;;
16346;SDS011;8283;48.504;13.734;2023-11-21T06:24:26;2.85;;;2.13;;
16346;SDS011;8283;48.504;13.734;2023-11-21T06:26:46;3.13;;;2.22;;
16346;SDS011;8283;48.504;13.734;2023-11-21T06:29:07;5.05;;;2.40;;
16346;SDS011;8283;48.504;13.734;2023-11-21T06:31:26;2.42;;;1.50;;
16346;SDS011;8283;48.504;13.734;2023-11-21T06:33:45;4.22;;;1.75;;
16346;SDS011;8283;48.504;13.734;2023-11-21T06:36:05;3.40;;;1.50;;
16346;SDS011;8283;48.504;13.734;2023-11-21T06:38:25;1.88;;;1.20;;
16346;SDS011;8283;48.504;13.734;2023-11-21T06:40:48;2.97;;;1.63;;
16346;SDS011;8283;48.504;13.734;2023-11-21T06:43:08;1.98;;;1.10;;
16346;SDS011;8283;48.504;13.734;2023-11-21T06:45:27;2.83;;;1.27;;
16346;SDS011;8283;48.504;13.734;2023-11-21T06:47:47;1.25;;;1.08;;
16346;SDS011;8283;48.504;13.734;2023-11-21T06:50:07;2.25;;;1.40;;
16346;SDS011;8283;48.504;13.734;2023-11-21T06:52:27;2.20;;;1.33;;
16346;SDS011;8283;48.504;13.734;2023-11-21T06:54:46;1.48;;;1.10;;
16346;SDS011;8283;48.504;13.734;2023-11-21T06:57:08;1.90;;;1.17;;
16346;SDS011;8283;48.504;13.734;2023-11-21T06:59:30;2.08;;;1.60;;
16346;SDS011;8283;48.504;13.734;2023-11-21T07:01:50;5.07;;;1.90;;
16346;SDS011;8283;48.504;13.734;2023-11-21T07:04:09;1.67;;;1.58;;
16346;SDS011;8283;48.504;13.734;2023-11-21T07:06:29;1.83;;;1.40;;
16346;SDS011;8283;48.504;13.734;2023-11-21T07:08:48;3.17;;;1.50;;
16346;SDS011;8283;48.504;13.734;2023-11-21T07:11:07;2.22;;;1.80;;
16346;SDS011;8283;48.504;13.734;2023-11-21T07:13:27;3.60;;;1.45;;
16346;SDS011;8283;48.504;13.734;2023-11-21T07:15:46;3.67;;;1.35;;
16346;SDS011;8283;48.504;13.734;2023-11-21T07:18:07;2.03;;;1.30;;
16346;SDS011;8283;48.504;13.734;2023-11-21T07:20:26;3.05;;;1.17;;
16346;SDS011;8283;48.504;13.734;2023-11-21T07:22:46;1.88;;;1.58;;
16346;SDS011;8283;48.504;13.734;2023-11-21T07:25:06;3.67;;;1.48;;
16346;SDS011;8283;48.504;13.734;2023-11-21T07:27:26;3.65;;;1.40;;
16346;SDS011;8283;48.504;13.734;2023-11-21T07:29:45;2.95;;;1.30;;
16346;SDS011;8283;48.504;13.734;2023-11-21T07:32:04;5.68;;;1.50;;
16346;SDS011;8283;48.504;13.734;2023-11-21T07:34:24;13.38;;;1.92;;
16346;SDS011;8283;48.504;13.734;2023-11-21T07:36:43;2.85;;;1.20;;
16346;SDS011;8283;48.504;13.734;2023-11-21T07:39:03;1.85;;;1.40;;
16346;SDS011;8283;48.504;13.734;2023-11-21T07:41:23;4.30;;;1.33;;
16346;SDS011;8283;48.504;13.734;2023-11-21T07:43:42;3.60;;;1.70;;
16346;SDS011;8283;48.504;13.734;2023-11-21T07:46:02;3.72;;;1.92;;
16346;SDS011;8283;48.504;13.734;2023-11-21T07:48:22;2.03;;;1.65;;
16346;SDS011;8283;48.504;13.734;2023-11-21T07:50:41;3.10;;;1.65;;
16346;SDS011;8283;48.504;13.734;2023-11-21T07:53:00;4.20;;;1.67;;
16346;SDS011;8283;48.504;13.734;2023-11-21T07:55:20;3.20;;;1.75;;
16346;SDS011;8283;48.504;13.734;2023-11-21T07:57:39;1.92;;;1.42;;
16346;SDS011;8283;48.504;13.734;2023-11-21T07:59:59;1.85;;;1.25;;
16346;SDS011;8283;48.504;13.734;2023-11-21T08:02:19;2.53;;;1.20;;
16346;SDS011;8283;48.504;13.734;2023-11-21T08:04:38;1.98;;;1.20;;
16346;SDS011;8283;48.504;13.734;2023-11-21T08:06:58;2.03;;;1.20;;
16346;SDS011;8283;48.504;13.734;2023-11-21T08:09:17;2.95;;;1.10;;
16346;SDS011;8283;48.504;13.734;2023-11-21T08:11:37;2.92;;;1.92;;
16346;SDS011;8283;48.504;13.734;2023-11-21T08:13:57;2.50;;;1.40;;
16346;SDS011;8283;48.504;13.734;2023-11-21T08:16:18;2.80;;;1.40;;
16346;SDS011;8283;48.504;13.734;2023-11-21T08:18:37;1.75;;;1.33;;
16346;SDS011;8283;48.504;13.734;2023-11-21T08:20:56;1.98;;;1.30;;
16346;SDS011;8283;48.504;13.734;2023-11-21T08:23:16;2.60;;;1.15;;
16346;SDS011;8283;48.504;13.734;2023-11-21T08:25:36;4.80;;;1.13;;
16346;SDS011;8283;48.504;13.734;2023-11-21T08:27:55;2.45;;;1.30;;
16346;SDS011;8283;48.504;13.734;2023-11-21T08:30:15;2.00;;;1.50;;
16346;SDS011;8283;48.504;13.734;2023-11-21T08:32:35;2.03;;;1.30;;
16346;SDS011;8283;48.504;13.734;2023-11-21T08:34:54;4.13;;;1.60;;
16346;SDS011;8283;48.504;13.734;2023-11-21T08:37:14;1.47;;;1.33;;
16346;SDS011;8283;48.504;13.734;2023-11-21T08:39:34;2.20;;;1.67;;
16346;SDS011;8283;48.504;13.734;2023-11-21T08:41:56;3.03;;;1.70;;
16346;SDS011;8283;48.504;13.734;2023-11-21T08:44:16;1.85;;;1.50;;
16346;SDS011;8283;48.504;13.734;2023-11-21T08:46:40;2.88;;;1.55;;
16346;SDS011;8283;48.504;13.734;2023-11-21T08:49:01;4.28;;;1.65;;
16346;SDS011;8283;48.504;13.734;2023-11-21T08:51:20;2.35;;;1.35;;
16346;SDS011;8283;48.504;13.734;2023-11-21T08:53:39;4.47;;;1.60;;
16346;SDS011;8283;48.504;13.734;2023-11-21T08:55:59;2.90;;;1.55;;
16346;SDS011;8283;48.504;13.734;2023-11-21T08:58:19;5.53;;;1.63;;
16346;SDS011;8283;48.504;13.734;2023-11-21T09:00:39;3.22;;;1.30;;
16346;SDS011;8283;48.504;13.734;2023-11-21T09:03:00;3.53;;;1.83;;
16346;SDS011;8283;48.504;13.734;2023-11-21T09:05:20;2.35;;;2.03;;
16346;SDS011;8283;48.504;13.734;2023-11-21T09:07:40;4.53;;;2.00;;
16346;SDS011;8283;48.504;13.734;2023-11-21T09:10:00;2.47;;;1.73;;
16346;SDS011;8283;48.504;13.734;2023-11-21T09:12:20;3.45;;;1.58;;
16346;SDS011;8283;48.504;13.734;2023-11-21T09:14:40;4.63;;;1.63;;
16346;SDS011;8283;48.504;13.734;2023-11-21T09:16:59;2.67;;;1.80;;
16346;SDS011;8283;48.504;13.734;2023-11-21T09:19:19;2.78;;;1.63;;
16346;SDS011;8283;48.504;13.734;2023-11-21T09:21:39;3.63;;;1.70;;
16346;SDS011;8283;48.504;13.734;2023-11-21T09:23:59;3.95;;;1.92;;
16346;SDS011;8283;48.504;13.734;2023-11-21T09:26:18;2.47;;;1.90;;
16346;SDS011;8283;48.504;13.734;2023-11-21T09:28:37;3.88;;;1.80;;
16346;SDS011;8283;48.504;13.734;2023-11-21T09:30:58;3.35;;;1.92;;
16346;SDS011;8283;48.504;13.734;2023-11-21T09:33:17;4.35;;;2.30;;
16346;SDS011;8283;48.504;13.734;2023-11-21T09:35:37;5.28;;;2.55;;
16346;SDS011;8283;48.504;13.734;2023-11-21T09:37:57;4.47;;;1.97;;
16346;SDS011;8283;48.504;13.734;2023-11-21T09:40:16;4.85;;;2.15;;
16346;SDS011;8283;48.504;13.734;2023-11-21T09:42:48;5.57;;;2.30;;
16346;SDS011;8283;48.504;13.734;2023-11-21T09:45:17;4.47;;;3.13;;
16346;SDS011;8283;48.504;13.734;2023-11-21T09:47:43;4.43;;;2.00;;
16346;SDS011;8283;48.504;13.734;2023-11-21T09:50:03;2.97;;;2.10;;
16346;SDS011;8283;48.504;13.734;2023-11-21T09:52:27;2.47;;;2.20;;
16346;SDS011;8283;48.504;13.734;2023-11-21T09:54:47;3.42;;;2.10;;
16346;SDS011;8283;48.504;13.734;2023-11-21T09:57:08;6.32;;;2.05;;
16346;SDS011;8283;48.504;13.734;2023-11-21T09:59:31;2.08;;;1.80;;
16346;SDS011;8283;48.504;13.734;2023-11-21T10:01:52;3.00;;;1.88;;
16346;SDS011;8283;48.504;13.734;2023-11-21T10:04:11;4.63;;;2.17;;
16346;SDS011;8283;48.504;13.734;2023-11-21T10:06:30;3.50;;;2.10;;
16346;SDS011;8283;48.504;13.734;2023-11-21T10:08:51;3.15;;;1.80;;
16346;SDS011;8283;48.504;13.734;2023-11-21T10:11:17;3.05;;;1.88;;
16346;SDS011;8283;48.504;13.734;2023-11-21T10:13:38;5.05;;;2.50;;
16346;SDS011;8283;48.504;13.734;2023-11-21T10:15:59;3.20;;;2.35;;
16346;SDS011;8283;48.504;13.734;2023-11-21T10:18:19;4.68;;;2.78;;
16346;SDS011;8283;48.504;13.734;2023-11-21T10:20:42;4.93;;;2.83;;
16346;SDS011;8283;48.504;13.734;2023-11-21T10:23:02;3.25;;;1.98;;
16346;SDS011;8283;48.504;13.734;2023-11-21T10:25:22;3.58;;;2.10;;
16346;SDS011;8283;48.504;13.734;2023-11-21T10:27:41;7.47;;;2.50;;
16346;SDS011;8283;48.504;13.734;2023-11-21T10:30:07;3.40;;;2.50;;
16346;SDS011;8283;48.504;13.734;2023-11-21T10:32:30;3.35;;;2.50;;
16346;SDS011;8283;48.504;13.734;2023-11-21T10:34:56;2.97;;;2.20;;
16346;SDS011;8283;48.504;13.734;2023-11-21T10:37:15;3.20;;;1.90;;
16346;SDS011;8283;48.504;13.734;2023-11-21T10:39:35;4.28;;;2.40;;
16346;SDS011;8283;48.504;13.734;2023-11-21T10:41:54;4.07;;;2.42;;
16346;SDS011;8283;48.504;13.734;2023-11-21T10:44:15;6.35;;;2.75;;
16346;SDS011;8283;48.504;13.734;2023-11-21T10:46:44;3.42;;;2.33;;
16346;SDS011;8283;48.504;13.734;2023-11-21T10:49:09;3.25;;;2.40;;
16346;SDS011;8283;48.504;13.734;2023-11-21T10:51:30;5.50;;;2.30;;
16346;SDS011;8283;48.504;13.734;2023-11-21T10:53:52;2.70;;;1.90;;
16346;SDS011;8283;48.504;13.734;2023-11-21T10:56:13;2.08;;;1.52;;
16346;SDS011;8283;48.504;13.734;2023-11-21T10:58:38;3.22;;;1.70;;
16346;SDS011;8283;48.504;13.734;2023-11-21T11:00:58;3.83;;;2.50;;
16346;SDS011;8283;48.504;13.734;2023-11-21T11:03:18;3.45;;;1.50;;
16346;SDS011;8283;48.504;13.734;2023-11-21T11:05:38;2.15;;;1.38;;
16346;SDS011;8283;48.504;13.734;2023-11-21T11:10:21;3.97;;;1.63;;
16346;SDS011;8283;48.504;13.734;2023-11-21T11:12:45;2.72;;;1.52;;
16346;SDS011;8283;48.504;13.734;2023-11-21T11:15:06;2.92;;;1.60;;
16346;SDS011;8283;48.504;13.734;2023-11-21T11:17:27;2.55;;;1.70;;
16346;SDS011;8283;48.504;13.734;2023-11-21T11:19:47;2.38;;;1.40;;
16346;SDS011;8283;48.504;13.734;2023-11-21T11:22:19;2.45;;;1.30;;
16346;SDS011;8283;48.504;13.734;2023-11-21T11:25:19;1.85;;;1.20;;
16346;SDS011;8283;48.504;13.734;2023-11-21T11:30:39;4.13;;;2.22;;
16346;SDS011;8283;48.504;13.734;2023-11-21T11:33:35;4.07;;;1.30;;
16346;SDS011;8283;48.504;13.734;2023-11-21T11:38:20;2.45;;;1.25;;
16346;SDS011;8283;48.504;13.734;2023-11-21T11:40:47;1.98;;;1.10;;
16346;SDS011;8283;48.504;13.734;2023-11-21T11:43:07;0.90;;;0.77;;
16346;SDS011;8283;48.504;13.734;2023-11-21T11:45:31;1.77;;;1.08;;
16346;SDS011;8283;48.504;13.734;2023-11-21T11:47:56;1.58;;;1.15;;
16346;SDS011;8283;48.504;13.734;2023-11-21T11:50:17;1.63;;;1.30;;
16346;SDS011;8283;48.504;13.734;2023-11-21T11:52:37;1.80;;;0.98;;
16346;SDS011;8283;48.504;13.734;2023-11-21T11:54:59;2.60;;;1.42;;
16346;SDS011;8283;48.504;13.734;2023-11-21T11:57:19;1.73;;;1.58;;
16346;SDS011;8283;48.504;13.734;2023-11-21T12:02:29;1.70;;;1.13;;
16346;SDS011;8283;48.504;13.734;2023-11-21T12:04:49;2.25;;;1.70;;
16346;SDS011;8283;48.504;13.734;2023-11-21T12:07:08;1.65;;;1.25;;
16346;SDS011;8283;48.504;13.734;2023-11-21T12:09:27;1.75;;;1.15;;
16346;SDS011;8283;48.504;13.734;2023-11-21T12:11:48;3.13;;;1.50;;
16346;SDS011;8283;48.504;13.734;2023-11-21T12:14:08;2.88;;;1.35;;
16346;SDS011;8283;48.504;13.734;2023-11-21T12:16:28;2.03;;;1.30;;
16346;SDS011;8283;48.504;13.734;2023-11-21T12:18:51;1.95;;;1.25;;
16346;SDS011;8283;48.504;13.734;2023-11-21T12:21:10;1.45;;;0.90;;
16346;SDS011;8283;48.504;13.734;2023-11-21T12:23:30;3.47;;;1.30;;
16346;SDS011;8283;48.504;13.734;2023-11-21T12:25:49;1.10;;;0.93;;
16346;SDS011;8283;48.504;13.734;2023-11-21T12:28:09;1.75;;;1.00;;
16346;SDS011;8283;48.504;13.734;2023-11-21T12:30:31;2.72;;;1.10;;
16346;SDS011;8283;48.504;13.734;2023-11-21T12:32:55;2.15;;;1.40;;
16346;SDS011;8283;48.504;13.734;2023-11-21T12:35:15;5.13;;;1.98;;
16346;SDS011;8283;48.504;13.734;2023-11-21T12:37:38;3.53;;;1.20;;
16346;SDS011;8283;48.504;13.734;2023-11-21T12:39:58;1.90;;;1.08;;
16346;SDS011;8283;48.504;13.734;2023-11-21T12:42:18;1.38;;;1.15;;
16346;SDS011;8283;48.504;13.734;2023-11-21T12:44:38;2.95;;;1.80;;
16346;SDS011;8283;48.504;13.734;2023-11-21T12:46:59;3.55;;;2.28;;
16346;SDS011;8283;48.504;13.734;2023-11-21T12:49:19;3.30;;;2.25;;
16346;SDS011;8283;48.504;13.734;2023-11-21T12:51:40;1.77;;;1.42;;
16346;SDS011;8283;48.504;13.734;2023-11-21T12:54:00;2.97;;;1.60;;
16346;SDS011;8283;48.504;13.734;2023-11-21T12:56:21;2.50;;;1.63;;
16346;SDS011;8283;48.504;13.734;2023-11-21T12:58:43;2.38;;;1.92;;
16346;SDS011;8283;48.504;13.734;2023-11-21T13:01:05;1.90;;;1.30;;
16346;SDS011;8283;48.504;13.734;2023-11-21T13:03:30;3.47;;;1.80;;
16346;SDS011;8283;48.504;13.734;2023-11-21T13:05:49;2.47;;;1.60;;
16346;SDS011;8283;48.504;13.734;2023-11-21T13:08:10;1.80;;;1.58;;
16346;SDS011;8283;48.504;13.734;2023-11-21T13:10:35;2.63;;;1.88;;
16346;SDS011;8283;48.504;13.734;2023-11-21T13:12:55;4.70;;;1.63;;
16346;SDS011;8283;48.504;13.734;2023-11-21T13:15:17;2.03;;;1.20;;
16346;SDS011;8283;48.504;13.734;2023-11-21T13:17:37;1.80;;;1.10;;
16346;SDS011;8283;48.504;13.734;2023-11-21T13:19:57;2.30;;;1.63;;
16346;SDS011;8283;48.504;13.734;2023-11-21T13:22:17;3.03;;;1.83;;
16346;SDS011;8283;48.504;13.734;2023-11-21T13:24:37;2.38;;;1.70;;
16346;SDS011;8283;48.504;13.734;2023-11-21T13:26:56;4.53;;;1.80;;
16346;SDS011;8283;48.504;13.734;2023-11-21T13:29:16;2.75;;;1.30;;
16346;SDS011;8283;48.504;13.734;2023-11-21T13:31:36;1.27;;;1.17;;
16346;SDS011;8283;48.504;13.734;2023-11-21T13:33:56;1.75;;;1.40;;
16346;SDS011;8283;48.504;13.734;2023-11-21T13:36:23;4.72;;;1.50;;
16346;SDS011;8283;48.504;13.734;2023-11-21T13:38:44;1.60;;;1.50;;
16346;SDS011;8283;48.504;13.734;2023-11-21T13:41:04;1.90;;;1.52;;
16346;SDS011;8283;48.504;13.734;2023-11-21T13:43:26;3.00;;;1.60;;
16346;SDS011;8283;48.504;13.734;2023-11-21T13:45:48;2.28;;;1.67;;
16346;SDS011;8283;48.504;13.734;2023-11-21T13:48:31;1.45;;;1.17;;
16346;SDS011;8283;48.504;13.734;2023-11-21T13:50:57;2.47;;;1.60;;
16346;SDS011;8283;48.504;13.734;2023-11-21T13:53:19;2.75;;;1.40;;
16346;SDS011;8283;48.504;13.734;2023-11-21T13:55:42;2.95;;;1.58;;
16346;SDS011;8283;48.504;13.734;2023-11-21T13:58:01;2.25;;;1.50;;
16346;SDS011;8283;48.504;13.734;2023-11-21T14:00:22;4.18;;;2.53;;
16346;SDS011;8283;48.504;13.734;2023-11-21T14:03:00;2.78;;;1.55;;
16346;SDS011;8283;48.504;13.734;2023-11-21T14:05:21;1.80;;;1.17;;
16346;SDS011;8283;48.504;13.734;2023-11-21T14:07:48;3.25;;;1.48;;
16346;SDS011;8283;48.504;13.734;2023-11-21T14:10:07;3.25;;;1.58;;
16346;SDS011;8283;48.504;13.734;2023-11-21T14:12:32;1.77;;;1.20;;
16346;SDS011;8283;48.504;13.734;2023-11-21T14:14:53;3.38;;;1.23;;
16346;SDS011;8283;48.504;13.734;2023-11-21T14:17:14;1.65;;;1.20;;
16346;SDS011;8283;48.504;13.734;2023-11-21T14:19:34;1.83;;;1.40;;
16346;SDS011;8283;48.504;13.734;2023-11-21T14:21:57;2.10;;;1.38;;